Vienna, Austria
Current Conditions -  °F | °C
As of 6:20 PM on Monday 24 Nov 2014 (Local Time) from LOWW Reporting Station
Broken Clouds Broken Clouds  
Wind Chill: 33°   Ceiling: 1600
Heat Index: 39°   Visibility: 4mi
Dew Point: 37°   Wind: 9mph
Humidity: 93%   Direction: 150°SSE
Pressure: 30.3"   Gusts: NA
Location:  48.22°N, 16.37°E
Report Text: LOWW 241620Z 15008KT 7000 FEW014 BKN016 04/03 Q1026 NOSIG
Loading
Personal Weather Stations






























Interactive Weather Map New forecast layout! Learn more

10-Day Weather Forecast

Advertisements
Track Severe Weather on mobile